Aviation Digital Data Service (ADDS)

Output produced by METARs form (0644 UTC 24 January 2019)
found at http://aviationweather.gov/metar/data/
 
KSHV 240556Z 31005KT 10SM CLR 00/M02 A3010 RMK AO2 SLP194 T00001022 10033 21006 401331006 50006
KSHV 240542Z 2406/2506 29005KT P6SM SKC 
     FM240900 VRB03KT P6SM SKC 
     FM241800 28006KT P6SM BKN150